sensor_id;sensor_type;location;lat;lon;timestamp;P1;durP1;ratioP1;P2;durP2;ratioP2
57401;SDS011;43226;51.110;6.998;2023-05-16T00:00:23;8.93;;;4.13;;
57401;SDS011;43226;51.110;6.998;2023-05-16T00:02:49;5.03;;;4.00;;
57401;SDS011;43226;51.110;6.998;2023-05-16T00:05:15;5.70;;;4.07;;
57401;SDS011;43226;51.110;6.998;2023-05-16T00:07:44;7.33;;;5.00;;
57401;SDS011;43226;51.110;6.998;2023-05-16T00:10:10;7.73;;;4.60;;
57401;SDS011;43226;51.110;6.998;2023-05-16T00:12:35;7.77;;;4.50;;
57401;SDS011;43226;51.110;6.998;2023-05-16T00:15:01;5.90;;;4.50;;
57401;SDS011;43226;51.110;6.998;2023-05-16T00:17:27;7.53;;;4.07;;
57401;SDS011;43226;51.110;6.998;2023-05-16T00:19:52;6.47;;;4.20;;
57401;SDS011;43226;51.110;6.998;2023-05-16T00:22:22;4.87;;;3.63;;
57401;SDS011;43226;51.110;6.998;2023-05-16T00:24:47;6.37;;;3.83;;
57401;SDS011;43226;51.110;6.998;2023-05-16T00:27:12;7.60;;;4.40;;
57401;SDS011;43226;51.110;6.998;2023-05-16T00:29:37;6.93;;;4.50;;
57401;SDS011;43226;51.110;6.998;2023-05-16T00:32:03;6.17;;;4.47;;
57401;SDS011;43226;51.110;6.998;2023-05-16T00:34:28;7.33;;;4.40;;
57401;SDS011;43226;51.110;6.998;2023-05-16T00:36:53;6.83;;;3.93;;
57401;SDS011;43226;51.110;6.998;2023-05-16T00:39:18;9.40;;;3.80;;
57401;SDS011;43226;51.110;6.998;2023-05-16T00:41:44;4.27;;;3.70;;
57401;SDS011;43226;51.110;6.998;2023-05-16T00:44:10;5.53;;;3.60;;
57401;SDS011;43226;51.110;6.998;2023-05-16T00:46:35;4.97;;;3.50;;
57401;SDS011;43226;51.110;6.998;2023-05-16T00:49:00;5.47;;;3.73;;
57401;SDS011;43226;51.110;6.998;2023-05-16T00:51:25;8.13;;;3.67;;
57401;SDS011;43226;51.110;6.998;2023-05-16T00:53:51;7.63;;;3.53;;
57401;SDS011;43226;51.110;6.998;2023-05-16T00:56:16;4.20;;;3.03;;
57401;SDS011;43226;51.110;6.998;2023-05-16T00:58:42;7.33;;;3.93;;
57401;SDS011;43226;51.110;6.998;2023-05-16T01:01:07;5.27;;;3.47;;
57401;SDS011;43226;51.110;6.998;2023-05-16T01:03:32;6.40;;;2.90;;
57401;SDS011;43226;51.110;6.998;2023-05-16T01:05:58;3.83;;;3.00;;
57401;SDS011;43226;51.110;6.998;2023-05-16T01:08:23;4.17;;;2.83;;
57401;SDS011;43226;51.110;6.998;2023-05-16T01:10:52;3.07;;;2.77;;
57401;SDS011;43226;51.110;6.998;2023-05-16T01:13:43;4.70;;;3.10;;
57401;SDS011;43226;51.110;6.998;2023-05-16T01:16:12;5.23;;;3.07;;
57401;SDS011;43226;51.110;6.998;2023-05-16T01:21:11;3.27;;;2.93;;
57401;SDS011;43226;51.110;6.998;2023-05-16T01:23:39;4.73;;;3.20;;
57401;SDS011;43226;51.110;6.998;2023-05-16T01:26:10;6.80;;;4.10;;
57401;SDS011;43226;51.110;6.998;2023-05-16T01:28:36;4.23;;;3.10;;
57401;SDS011;43226;51.110;6.998;2023-05-16T01:31:02;4.90;;;3.20;;
57401;SDS011;43226;51.110;6.998;2023-05-16T01:33:27;3.50;;;3.20;;
57401;SDS011;43226;51.110;6.998;2023-05-16T01:35:54;4.90;;;3.10;;
57401;SDS011;43226;51.110;6.998;2023-05-16T01:38:29;5.57;;;3.87;;
57401;SDS011;43226;51.110;6.998;2023-05-16T01:40:59;4.87;;;3.20;;
57401;SDS011;43226;51.110;6.998;2023-05-16T01:43:33;4.90;;;3.50;;
57401;SDS011;43226;51.110;6.998;2023-05-16T01:46:02;3.23;;;2.93;;
57401;SDS011;43226;51.110;6.998;2023-05-16T01:48:29;3.73;;;3.33;;
57401;SDS011;43226;51.110;6.998;2023-05-16T01:50:56;3.97;;;2.97;;
57401;SDS011;43226;51.110;6.998;2023-05-16T01:53:24;3.10;;;2.60;;
57401;SDS011;43226;51.110;6.998;2023-05-16T01:55:51;2.00;;;1.90;;
57401;SDS011;43226;51.110;6.998;2023-05-16T01:58:18;2.40;;;2.20;;
57401;SDS011;43226;51.110;6.998;2023-05-16T02:00:44;2.70;;;2.50;;
57401;SDS011;43226;51.110;6.998;2023-05-16T02:03:09;3.67;;;2.27;;
57401;SDS011;43226;51.110;6.998;2023-05-16T02:05:34;4.50;;;1.80;;
57401;SDS011;43226;51.110;6.998;2023-05-16T02:08:00;2.47;;;2.10;;
57401;SDS011;43226;51.110;6.998;2023-05-16T02:10:25;3.00;;;2.17;;
57401;SDS011;43226;51.110;6.998;2023-05-16T02:12:50;4.07;;;2.27;;
57401;SDS011;43226;51.110;6.998;2023-05-16T02:15:16;3.33;;;2.17;;
57401;SDS011;43226;51.110;6.998;2023-05-16T02:17:41;4.33;;;2.60;;
57401;SDS011;43226;51.110;6.998;2023-05-16T02:20:06;3.73;;;2.40;;
57401;SDS011;43226;51.110;6.998;2023-05-16T02:22:36;3.47;;;2.17;;
57401;SDS011;43226;51.110;6.998;2023-05-16T02:25:03;2.70;;;2.20;;
57401;SDS011;43226;51.110;6.998;2023-05-16T02:27:29;2.73;;;2.00;;
57401;SDS011;43226;51.110;6.998;2023-05-16T02:29:54;6.00;;;2.80;;
57401;SDS011;43226;51.110;6.998;2023-05-16T02:32:19;4.50;;;2.97;;
57401;SDS011;43226;51.110;6.998;2023-05-16T02:34:45;5.33;;;2.63;;
57401;SDS011;43226;51.110;6.998;2023-05-16T02:37:10;6.93;;;3.10;;
57401;SDS011;43226;51.110;6.998;2023-05-16T02:39:35;7.80;;;2.10;;
57401;SDS011;43226;51.110;6.998;2023-05-16T02:42:01;5.10;;;2.37;;
57401;SDS011;43226;51.110;6.998;2023-05-16T02:44:27;3.57;;;2.13;;
57401;SDS011;43226;51.110;6.998;2023-05-16T02:46:52;6.60;;;2.73;;
57401;SDS011;43226;51.110;6.998;2023-05-16T02:49:17;2.57;;;1.73;;
57401;SDS011;43226;51.110;6.998;2023-05-16T02:51:42;4.00;;;2.40;;
57401;SDS011;43226;51.110;6.998;2023-05-16T02:54:07;10.10;;;2.70;;
57401;SDS011;43226;51.110;6.998;2023-05-16T02:56:33;2.83;;;2.53;;
57401;SDS011;43226;51.110;6.998;2023-05-16T02:58:59;4.27;;;2.87;;
57401;SDS011;43226;51.110;6.998;2023-05-16T03:01:24;4.13;;;3.20;;
57401;SDS011;43226;51.110;6.998;2023-05-16T03:03:49;6.73;;;2.70;;
57401;SDS011;43226;51.110;6.998;2023-05-16T03:06:14;9.73;;;3.17;;
57401;SDS011;43226;51.110;6.998;2023-05-16T03:08:40;5.57;;;3.10;;
57401;SDS011;43226;51.110;6.998;2023-05-16T03:11:05;15.40;;;3.67;;
57401;SDS011;43226;51.110;6.998;2023-05-16T03:13:30;7.40;;;3.43;;
57401;SDS011;43226;51.110;6.998;2023-05-16T03:15:55;12.20;;;3.20;;
57401;SDS011;43226;51.110;6.998;2023-05-16T03:18:21;10.90;;;2.97;;
57401;SDS011;43226;51.110;6.998;2023-05-16T03:20:46;5.10;;;4.20;;
57401;SDS011;43226;51.110;6.998;2023-05-16T03:23:11;12.63;;;3.87;;
57401;SDS011;43226;51.110;6.998;2023-05-16T03:25:36;5.07;;;3.33;;
57401;SDS011;43226;51.110;6.998;2023-05-16T03:28:02;20.80;;;3.70;;
57401;SDS011;43226;51.110;6.998;2023-05-16T03:30:27;10.17;;;3.23;;
57401;SDS011;43226;51.110;6.998;2023-05-16T03:32:53;5.60;;;2.97;;
57401;SDS011;43226;51.110;6.998;2023-05-16T03:35:18;6.00;;;3.07;;
57401;SDS011;43226;51.110;6.998;2023-05-16T03:37:44;8.37;;;2.93;;
57401;SDS011;43226;51.110;6.998;2023-05-16T03:40:10;4.33;;;3.03;;
57401;SDS011;43226;51.110;6.998;2023-05-16T03:42:36;12.03;;;3.93;;
57401;SDS011;43226;51.110;6.998;2023-05-16T03:45:01;9.00;;;3.40;;
57401;SDS011;43226;51.110;6.998;2023-05-16T03:47:27;8.90;;;2.90;;
57401;SDS011;43226;51.110;6.998;2023-05-16T03:49:55;15.10;;;2.83;;
57401;SDS011;43226;51.110;6.998;2023-05-16T03:52:20;13.70;;;2.77;;
57401;SDS011;43226;51.110;6.998;2023-05-16T03:54:45;8.40;;;2.30;;
57401;SDS011;43226;51.110;6.998;2023-05-16T03:57:10;8.67;;;2.87;;
57401;SDS011;43226;51.110;6.998;2023-05-16T03:59:35;5.30;;;2.20;;
57401;SDS011;43226;51.110;6.998;2023-05-16T04:02:02;3.90;;;2.43;;
57401;SDS011;43226;51.110;6.998;2023-05-16T04:04:28;12.03;;;3.37;;
57401;SDS011;43226;51.110;6.998;2023-05-16T04:06:53;3.87;;;1.90;;
57401;SDS011;43226;51.110;6.998;2023-05-16T04:09:18;5.70;;;2.70;;
57401;SDS011;43226;51.110;6.998;2023-05-16T04:11:43;6.17;;;2.30;;
57401;SDS011;43226;51.110;6.998;2023-05-16T04:14:09;5.80;;;2.13;;
57401;SDS011;43226;51.110;6.998;2023-05-16T04:16:34;6.00;;;2.67;;
57401;SDS011;43226;51.110;6.998;2023-05-16T04:19:00;4.43;;;2.70;;
57401;SDS011;43226;51.110;6.998;2023-05-16T04:21:25;5.77;;;2.13;;
57401;SDS011;43226;51.110;6.998;2023-05-16T04:23:50;7.80;;;2.37;;
57401;SDS011;43226;51.110;6.998;2023-05-16T04:26:15;9.87;;;2.07;;
57401;SDS011;43226;51.110;6.998;2023-05-16T04:28:41;5.80;;;2.43;;
57401;SDS011;43226;51.110;6.998;2023-05-16T04:31:06;4.50;;;1.77;;
57401;SDS011;43226;51.110;6.998;2023-05-16T04:33:32;6.10;;;2.17;;
57401;SDS011;43226;51.110;6.998;2023-05-16T04:35:57;4.87;;;2.40;;
57401;SDS011;43226;51.110;6.998;2023-05-16T04:38:22;2.80;;;2.00;;
57401;SDS011;43226;51.110;6.998;2023-05-16T04:40:48;8.67;;;2.70;;
57401;SDS011;43226;51.110;6.998;2023-05-16T04:43:14;5.47;;;1.90;;
57401;SDS011;43226;51.110;6.998;2023-05-16T04:45:40;11.97;;;1.90;;
57401;SDS011;43226;51.110;6.998;2023-05-16T04:48:06;3.20;;;1.80;;
57401;SDS011;43226;51.110;6.998;2023-05-16T04:50:32;3.27;;;1.60;;
57401;SDS011;43226;51.110;6.998;2023-05-16T04:52:57;5.70;;;1.77;;
57401;SDS011;43226;51.110;6.998;2023-05-16T04:55:22;14.43;;;2.77;;
57401;SDS011;43226;51.110;6.998;2023-05-16T04:57:47;4.70;;;1.70;;
57401;SDS011;43226;51.110;6.998;2023-05-16T05:00:13;4.37;;;1.83;;
57401;SDS011;43226;51.110;6.998;2023-05-16T05:02:38;6.30;;;1.90;;
57401;SDS011;43226;51.110;6.998;2023-05-16T05:05:04;7.10;;;1.80;;
57401;SDS011;43226;51.110;6.998;2023-05-16T05:07:29;2.87;;;2.00;;
57401;SDS011;43226;51.110;6.998;2023-05-16T05:09:54;8.30;;;2.40;;
57401;SDS011;43226;51.110;6.998;2023-05-16T05:12:20;6.27;;;2.87;;
57401;SDS011;43226;51.110;6.998;2023-05-16T05:14:45;3.43;;;2.00;;
57401;SDS011;43226;51.110;6.998;2023-05-16T05:17:10;6.77;;;1.90;;
57401;SDS011;43226;51.110;6.998;2023-05-16T05:19:36;9.93;;;2.23;;
57401;SDS011;43226;51.110;6.998;2023-05-16T05:22:01;12.10;;;1.70;;
57401;SDS011;43226;51.110;6.998;2023-05-16T05:24:26;13.70;;;1.77;;
57401;SDS011;43226;51.110;6.998;2023-05-16T05:26:51;4.13;;;1.40;;
57401;SDS011;43226;51.110;6.998;2023-05-16T05:29:17;10.20;;;1.93;;
57401;SDS011;43226;51.110;6.998;2023-05-16T05:31:42;8.33;;;1.63;;
57401;SDS011;43226;51.110;6.998;2023-05-16T05:34:07;7.57;;;2.67;;
57401;SDS011;43226;51.110;6.998;2023-05-16T05:36:32;5.50;;;2.30;;
57401;SDS011;43226;51.110;6.998;2023-05-16T05:38:58;6.87;;;1.80;;
57401;SDS011;43226;51.110;6.998;2023-05-16T05:41:23;11.07;;;2.03;;
57401;SDS011;43226;51.110;6.998;2023-05-16T05:43:48;5.17;;;1.23;;
57401;SDS011;43226;51.110;6.998;2023-05-16T05:46:13;3.43;;;1.50;;
57401;SDS011;43226;51.110;6.998;2023-05-16T05:48:39;5.53;;;1.80;;
57401;SDS011;43226;51.110;6.998;2023-05-16T05:51:04;15.27;;;2.10;;
57401;SDS011;43226;51.110;6.998;2023-05-16T05:53:29;4.60;;;1.73;;
57401;SDS011;43226;51.110;6.998;2023-05-16T05:55:54;6.70;;;2.00;;
57401;SDS011;43226;51.110;6.998;2023-05-16T05:58:20;8.47;;;1.73;;
57401;SDS011;43226;51.110;6.998;2023-05-16T06:00:45;12.50;;;2.87;;
57401;SDS011;43226;51.110;6.998;2023-05-16T06:03:10;7.17;;;1.57;;
57401;SDS011;43226;51.110;6.998;2023-05-16T06:05:36;5.27;;;1.47;;
57401;SDS011;43226;51.110;6.998;2023-05-16T06:08:01;6.00;;;1.87;;
57401;SDS011;43226;51.110;6.998;2023-05-16T06:10:26;12.83;;;1.73;;
57401;SDS011;43226;51.110;6.998;2023-05-16T06:12:51;10.93;;;1.90;;
57401;SDS011;43226;51.110;6.998;2023-05-16T06:15:17;2.43;;;1.60;;
57401;SDS011;43226;51.110;6.998;2023-05-16T06:17:42;5.40;;;1.97;;
57401;SDS011;43226;51.110;6.998;2023-05-16T06:20:07;15.73;;;2.20;;
57401;SDS011;43226;51.110;6.998;2023-05-16T06:22:32;4.27;;;2.23;;
57401;SDS011;43226;51.110;6.998;2023-05-16T06:24:57;6.93;;;1.50;;
57401;SDS011;43226;51.110;6.998;2023-05-16T06:27:23;6.27;;;1.37;;
57401;SDS011;43226;51.110;6.998;2023-05-16T06:29:48;5.50;;;1.50;;
57401;SDS011;43226;51.110;6.998;2023-05-16T06:32:13;12.33;;;1.90;;
57401;SDS011;43226;51.110;6.998;2023-05-16T06:34:38;5.00;;;1.40;;
57401;SDS011;43226;51.110;6.998;2023-05-16T06:37:04;3.23;;;1.23;;
57401;SDS011;43226;51.110;6.998;2023-05-16T06:39:29;5.43;;;1.70;;
57401;SDS011;43226;51.110;6.998;2023-05-16T06:41:54;7.20;;;1.20;;
57401;SDS011;43226;51.110;6.998;2023-05-16T06:44:20;5.73;;;1.53;;
57401;SDS011;43226;51.110;6.998;2023-05-16T06:46:45;5.30;;;1.97;;
57401;SDS011;43226;51.110;6.998;2023-05-16T06:49:10;3.70;;;1.47;;
57401;SDS011;43226;51.110;6.998;2023-05-16T06:51:35;3.43;;;1.73;;
57401;SDS011;43226;51.110;6.998;2023-05-16T06:54:01;6.07;;;1.60;;
57401;SDS011;43226;51.110;6.998;2023-05-16T06:56:26;8.43;;;1.53;;
57401;SDS011;43226;51.110;6.998;2023-05-16T06:58:52;10.30;;;1.50;;
57401;SDS011;43226;51.110;6.998;2023-05-16T07:01:18;7.23;;;1.73;;
57401;SDS011;43226;51.110;6.998;2023-05-16T07:03:43;4.33;;;1.43;;
57401;SDS011;43226;51.110;6.998;2023-05-16T07:06:08;5.37;;;1.60;;
57401;SDS011;43226;51.110;6.998;2023-05-16T07:08:33;12.40;;;2.20;;
57401;SDS011;43226;51.110;6.998;2023-05-16T07:11:00;3.00;;;1.47;;
57401;SDS011;43226;51.110;6.998;2023-05-16T07:13:26;3.30;;;1.70;;
57401;SDS011;43226;51.110;6.998;2023-05-16T07:15:51;3.90;;;1.30;;
57401;SDS011;43226;51.110;6.998;2023-05-16T07:18:16;4.10;;;1.10;;
57401;SDS011;43226;51.110;6.998;2023-05-16T07:20:41;8.07;;;1.97;;
57401;SDS011;43226;51.110;6.998;2023-05-16T07:23:07;5.07;;;1.50;;
57401;SDS011;43226;51.110;6.998;2023-05-16T07:25:32;3.43;;;1.70;;
57401;SDS011;43226;51.110;6.998;2023-05-16T07:27:57;6.67;;;1.53;;
57401;SDS011;43226;51.110;6.998;2023-05-16T07:30:22;3.17;;;1.33;;
57401;SDS011;43226;51.110;6.998;2023-05-16T07:32:48;2.87;;;1.03;;
57401;SDS011;43226;51.110;6.998;2023-05-16T07:35:13;4.77;;;1.20;;
57401;SDS011;43226;51.110;6.998;2023-05-16T07:37:38;3.43;;;1.27;;
57401;SDS011;43226;51.110;6.998;2023-05-16T07:40:06;1.30;;;0.83;;
57401;SDS011;43226;51.110;6.998;2023-05-16T07:42:32;4.50;;;1.37;;
57401;SDS011;43226;51.110;6.998;2023-05-16T07:44:57;3.60;;;1.47;;
57401;SDS011;43226;51.110;6.998;2023-05-16T07:47:22;7.50;;;1.20;;
57401;SDS011;43226;51.110;6.998;2023-05-16T07:49:48;13.40;;;1.70;;
57401;SDS011;43226;51.110;6.998;2023-05-16T07:52:13;3.43;;;1.30;;
57401;SDS011;43226;51.110;6.998;2023-05-16T07:54:38;6.63;;;1.30;;
57401;SDS011;43226;51.110;6.998;2023-05-16T07:57:03;6.53;;;1.40;;
57401;SDS011;43226;51.110;6.998;2023-05-16T07:59:28;3.20;;;1.00;;
57401;SDS011;43226;51.110;6.998;2023-05-16T08:01:54;7.57;;;1.77;;
57401;SDS011;43226;51.110;6.998;2023-05-16T08:04:20;6.07;;;1.50;;
57401;SDS011;43226;51.110;6.998;2023-05-16T08:06:45;8.70;;;2.03;;
57401;SDS011;43226;51.110;6.998;2023-05-16T08:09:11;3.83;;;1.17;;
57401;SDS011;43226;51.110;6.998;2023-05-16T08:11:36;4.30;;;1.20;;
57401;SDS011;43226;51.110;6.998;2023-05-16T08:14:01;5.57;;;1.23;;
57401;SDS011;43226;51.110;6.998;2023-05-16T08:16:27;2.20;;;1.30;;
57401;SDS011;43226;51.110;6.998;2023-05-16T08:18:52;3.47;;;1.23;;
57401;SDS011;43226;51.110;6.998;2023-05-16T08:21:17;1.97;;;1.10;;
57401;SDS011;43226;51.110;6.998;2023-05-16T08:23:42;3.60;;;1.23;;
57401;SDS011;43226;51.110;6.998;2023-05-16T08:26:07;4.97;;;1.20;;
57401;SDS011;43226;51.110;6.998;2023-05-16T08:28:32;3.53;;;1.10;;
57401;SDS011;43226;51.110;6.998;2023-05-16T08:30:58;2.30;;;1.77;;
57401;SDS011;43226;51.110;6.998;2023-05-16T08:33:23;1.10;;;1.00;;
57401;SDS011;43226;51.110;6.998;2023-05-16T08:35:49;7.57;;;1.33;;
57401;SDS011;43226;51.110;6.998;2023-05-16T08:38:16;1.77;;;1.07;;
57401;SDS011;43226;51.110;6.998;2023-05-16T08:40:41;5.80;;;1.20;;
57401;SDS011;43226;51.110;6.998;2023-05-16T08:43:06;0.90;;;0.80;;
57401;SDS011;43226;51.110;6.998;2023-05-16T08:45:32;2.63;;;1.30;;
57401;SDS011;43226;51.110;6.998;2023-05-16T08:47:57;2.93;;;1.27;;
57401;SDS011;43226;51.110;6.998;2023-05-16T08:50:24;4.97;;;1.57;;
57401;SDS011;43226;51.110;6.998;2023-05-16T08:52:51;4.40;;;1.20;;
57401;SDS011;43226;51.110;6.998;2023-05-16T08:55:16;6.53;;;1.33;;
57401;SDS011;43226;51.110;6.998;2023-05-16T08:57:43;2.80;;;1.00;;
57401;SDS011;43226;51.110;6.998;2023-05-16T09:00:09;2.00;;;0.90;;
57401;SDS011;43226;51.110;6.998;2023-05-16T09:02:40;3.87;;;1.23;;
57401;SDS011;43226;51.110;6.998;2023-05-16T09:05:15;5.03;;;1.30;;
57401;SDS011;43226;51.110;6.998;2023-05-16T09:07:41;3.17;;;1.37;;
57401;SDS011;43226;51.110;6.998;2023-05-16T09:10:07;2.33;;;1.33;;
57401;SDS011;43226;51.110;6.998;2023-05-16T09:12:33;4.30;;;1.10;;
57401;SDS011;43226;51.110;6.998;2023-05-16T09:14:59;3.30;;;1.13;;
57401;SDS011;43226;51.110;6.998;2023-05-16T09:17:25;6.73;;;1.57;;
57401;SDS011;43226;51.110;6.998;2023-05-16T09:19:51;2.23;;;1.07;;
57401;SDS011;43226;51.110;6.998;2023-05-16T09:22:20;2.77;;;1.53;;
57401;SDS011;43226;51.110;6.998;2023-05-16T09:24:47;1.80;;;0.80;;
57401;SDS011;43226;51.110;6.998;2023-05-16T09:27:15;4.07;;;1.20;;
57401;SDS011;43226;51.110;6.998;2023-05-16T09:29:41;2.63;;;1.00;;
57401;SDS011;43226;51.110;6.998;2023-05-16T09:32:13;1.17;;;1.07;;
57401;SDS011;43226;51.110;6.998;2023-05-16T09:34:42;1.20;;;1.00;;
57401;SDS011;43226;51.110;6.998;2023-05-16T09:37:08;5.33;;;1.20;;
57401;SDS011;43226;51.110;6.998;2023-05-16T09:39:34;15.33;;;1.83;;
57401;SDS011;43226;51.110;6.998;2023-05-16T09:41:59;6.33;;;1.10;;
57401;SDS011;43226;51.110;6.998;2023-05-16T09:44:24;2.07;;;1.00;;
57401;SDS011;43226;51.110;6.998;2023-05-16T09:46:49;2.40;;;1.03;;
57401;SDS011;43226;51.110;6.998;2023-05-16T09:49:17;4.60;;;1.30;;
57401;SDS011;43226;51.110;6.998;2023-05-16T09:51:42;5.43;;;1.40;;
57401;SDS011;43226;51.110;6.998;2023-05-16T09:54:07;4.90;;;1.57;;
57401;SDS011;43226;51.110;6.998;2023-05-16T09:56:33;4.00;;;1.23;;
57401;SDS011;43226;51.110;6.998;2023-05-16T09:59:11;2.23;;;1.97;;
57401;SDS011;43226;51.110;6.998;2023-05-16T10:01:38;5.20;;;1.50;;
57401;SDS011;43226;51.110;6.998;2023-05-16T10:04:03;2.73;;;1.23;;
57401;SDS011;43226;51.110;6.998;2023-05-16T10:06:29;3.77;;;1.10;;
57401;SDS011;43226;51.110;6.998;2023-05-16T10:08:54;6.77;;;1.30;;
57401;SDS011;43226;51.110;6.998;2023-05-16T10:11:20;4.60;;;1.20;;
57401;SDS011;43226;51.110;6.998;2023-05-16T10:13:47;3.53;;;1.17;;
57401;SDS011;43226;51.110;6.998;2023-05-16T10:16:17;1.00;;;0.90;;
57401;SDS011;43226;51.110;6.998;2023-05-16T10:18:42;1.73;;;1.10;;
57401;SDS011;43226;51.110;6.998;2023-05-16T10:21:09;1.97;;;0.80;;
57401;SDS011;43226;51.110;6.998;2023-05-16T10:23:36;7.83;;;1.10;;
57401;SDS011;43226;51.110;6.998;2023-05-16T10:26:02;3.90;;;0.93;;
57401;SDS011;43226;51.110;6.998;2023-05-16T10:28:28;0.90;;;0.80;;
57401;SDS011;43226;51.110;6.998;2023-05-16T10:30:53;4.23;;;1.00;;
57401;SDS011;43226;51.110;6.998;2023-05-16T10:33:19;2.90;;;1.43;;
57401;SDS011;43226;51.110;6.998;2023-05-16T10:35:45;4.63;;;1.20;;
57401;SDS011;43226;51.110;6.998;2023-05-16T10:38:11;1.83;;;0.90;;
57401;SDS011;43226;51.110;6.998;2023-05-16T10:40:38;5.70;;;1.10;;
57401;SDS011;43226;51.110;6.998;2023-05-16T10:43:03;4.30;;;1.13;;
57401;SDS011;43226;51.110;6.998;2023-05-16T10:45:29;5.70;;;1.13;;
57401;SDS011;43226;51.110;6.998;2023-05-16T10:50:30;2.20;;;1.00;;
57401;SDS011;43226;51.110;6.998;2023-05-16T10:52:55;2.93;;;0.90;;
57401;SDS011;43226;51.110;6.998;2023-05-16T10:55:20;1.80;;;1.17;;
57401;SDS011;43226;51.110;6.998;2023-05-16T10:57:45;2.27;;;0.90;;
57401;SDS011;43226;51.110;6.998;2023-05-16T11:00:11;1.90;;;0.80;;
57401;SDS011;43226;51.110;6.998;2023-05-16T11:02:45;11.73;;;1.50;;
57401;SDS011;43226;51.110;6.998;2023-05-16T11:05:12;1.87;;;1.20;;
57401;SDS011;43226;51.110;6.998;2023-05-16T11:07:37;2.83;;;1.10;;
57401;SDS011;43226;51.110;6.998;2023-05-16T11:10:15;4.60;;;1.13;;
57401;SDS011;43226;51.110;6.998;2023-05-16T11:12:44;5.50;;;1.37;;
57401;SDS011;43226;51.110;6.998;2023-05-16T11:15:17;3.77;;;1.17;;
57401;SDS011;43226;51.110;6.998;2023-05-16T11:17:42;1.67;;;1.17;;
57401;SDS011;43226;51.110;6.998;2023-05-16T11:20:22;3.40;;;1.67;;
57401;SDS011;43226;51.110;6.998;2023-05-16T11:22:48;2.37;;;1.20;;
57401;SDS011;43226;51.110;6.998;2023-05-16T11:25:13;4.27;;;1.17;;
57401;SDS011;43226;51.110;6.998;2023-05-16T11:30:13;2.93;;;1.30;;
57401;SDS011;43226;51.110;6.998;2023-05-16T11:32:43;5.90;;;1.20;;
57401;SDS011;43226;51.110;6.998;2023-05-16T11:35:10;2.70;;;1.23;;
57401;SDS011;43226;51.110;6.998;2023-05-16T11:37:36;1.63;;;1.53;;
57401;SDS011;43226;51.110;6.998;2023-05-16T11:40:03;5.00;;;3.70;;
57401;SDS011;43226;51.110;6.998;2023-05-16T11:42:38;3.33;;;1.27;;
57401;SDS011;43226;51.110;6.998;2023-05-16T11:45:07;2.50;;;1.20;;
57401;SDS011;43226;51.110;6.998;2023-05-16T11:47:35;6.07;;;1.60;;
57401;SDS011;43226;51.110;6.998;2023-05-16T11:50:02;1.67;;;1.33;;
57401;SDS011;43226;51.110;6.998;2023-05-16T11:52:28;7.17;;;1.60;;
57401;SDS011;43226;51.110;6.998;2023-05-16T11:54:53;4.23;;;1.40;;
57401;SDS011;43226;51.110;6.998;2023-05-16T11:57:21;1.30;;;1.20;;
57401;SDS011;43226;51.110;6.998;2023-05-16T11:59:46;2.87;;;1.33;;
57401;SDS011;43226;51.110;6.998;2023-05-16T12:02:12;3.03;;;1.10;;
57401;SDS011;43226;51.110;6.998;2023-05-16T12:04:37;4.57;;;1.13;;
57401;SDS011;43226;51.110;6.998;2023-05-16T12:07:02;1.50;;;1.10;;
57401;SDS011;43226;51.110;6.998;2023-05-16T12:09:28;5.40;;;1.17;;
57401;SDS011;43226;51.110;6.998;2023-05-16T12:11:53;2.47;;;1.57;;
57401;SDS011;43226;51.110;6.998;2023-05-16T12:14:19;5.30;;;1.30;;
57401;SDS011;43226;51.110;6.998;2023-05-16T12:16:44;1.13;;;0.90;;
57401;SDS011;43226;51.110;6.998;2023-05-16T12:19:10;3.80;;;1.30;;
57401;SDS011;43226;51.110;6.998;2023-05-16T12:21:36;3.17;;;1.37;;
57401;SDS011;43226;51.110;6.998;2023-05-16T12:24:02;3.63;;;1.50;;
57401;SDS011;43226;51.110;6.998;2023-05-16T12:26:28;1.83;;;1.23;;
57401;SDS011;43226;51.110;6.998;2023-05-16T12:28:58;2.80;;;1.27;;
57401;SDS011;43226;51.110;6.998;2023-05-16T12:31:25;1.83;;;1.10;;
57401;SDS011;43226;51.110;6.998;2023-05-16T12:33:53;3.90;;;1.20;;
57401;SDS011;43226;51.110;6.998;2023-05-16T12:36:21;6.07;;;1.40;;
57401;SDS011;43226;51.110;6.998;2023-05-16T12:38:47;1.57;;;1.27;;
57401;SDS011;43226;51.110;6.998;2023-05-16T12:41:16;4.77;;;1.73;;
57401;SDS011;43226;51.110;6.998;2023-05-16T12:43:42;1.20;;;0.90;;
57401;SDS011;43226;51.110;6.998;2023-05-16T12:46:08;3.10;;;1.10;;
57401;SDS011;43226;51.110;6.998;2023-05-16T12:48:34;10.90;;;1.03;;
57401;SDS011;43226;51.110;6.998;2023-05-16T12:51:17;4.97;;;1.00;;
57401;SDS011;43226;51.110;6.998;2023-05-16T12:53:46;8.10;;;1.60;;
57401;SDS011;43226;51.110;6.998;2023-05-16T12:56:12;3.07;;;1.53;;
57401;SDS011;43226;51.110;6.998;2023-05-16T12:58:38;2.50;;;1.20;;
57401;SDS011;43226;51.110;6.998;2023-05-16T13:01:03;1.00;;;1.00;;
57401;SDS011;43226;51.110;6.998;2023-05-16T13:03:29;1.10;;;1.00;;
57401;SDS011;43226;51.110;6.998;2023-05-16T13:05:55;1.03;;;1.00;;
57401;SDS011;43226;51.110;6.998;2023-05-16T13:08:20;3.63;;;1.47;;
57401;SDS011;43226;51.110;6.998;2023-05-16T13:10:45;1.37;;;0.90;;
57401;SDS011;43226;51.110;6.998;2023-05-16T13:13:11;1.73;;;1.00;;
57401;SDS011;43226;51.110;6.998;2023-05-16T13:15:36;5.63;;;0.90;;
57401;SDS011;43226;51.110;6.998;2023-05-16T13:18:02;2.47;;;1.10;;
57401;SDS011;43226;51.110;6.998;2023-05-16T13:20:27;0.70;;;0.70;;
57401;SDS011;43226;51.110;6.998;2023-05-16T13:22:53;4.30;;;1.07;;
57401;SDS011;43226;51.110;6.998;2023-05-16T13:25:18;5.70;;;0.87;;
57401;SDS011;43226;51.110;6.998;2023-05-16T13:27:43;3.43;;;1.00;;
57401;SDS011;43226;51.110;6.998;2023-05-16T13:30:08;2.40;;;1.10;;
57401;SDS011;43226;51.110;6.998;2023-05-16T13:32:34;1.20;;;0.80;;
57401;SDS011;43226;51.110;6.998;2023-05-16T13:34:59;3.57;;;0.90;;
57401;SDS011;43226;51.110;6.998;2023-05-16T13:37:24;2.00;;;0.93;;
57401;SDS011;43226;51.110;6.998;2023-05-16T13:39:50;1.10;;;0.70;;
57401;SDS011;43226;51.110;6.998;2023-05-16T13:42:15;2.77;;;1.00;;
57401;SDS011;43226;51.110;6.998;2023-05-16T13:44:40;1.90;;;0.83;;
57401;SDS011;43226;51.110;6.998;2023-05-16T13:47:06;2.63;;;0.90;;
57401;SDS011;43226;51.110;6.998;2023-05-16T13:49:31;1.43;;;0.70;;
57401;SDS011;43226;51.110;6.998;2023-05-16T13:51:57;3.33;;;0.90;;
57401;SDS011;43226;51.110;6.998;2023-05-16T13:54:23;1.17;;;0.70;;
57401;SDS011;43226;51.110;6.998;2023-05-16T13:56:48;1.90;;;0.87;;
57401;SDS011;43226;51.110;6.998;2023-05-16T13:59:13;1.77;;;0.83;;
57401;SDS011;43226;51.110;6.998;2023-05-16T14:01:38;2.43;;;1.00;;
57401;SDS011;43226;51.110;6.998;2023-05-16T14:04:04;2.90;;;0.90;;
57401;SDS011;43226;51.110;6.998;2023-05-16T14:06:29;1.40;;;1.17;;
57401;SDS011;43226;51.110;6.998;2023-05-16T14:08:55;1.73;;;0.80;;
57401;SDS011;43226;51.110;6.998;2023-05-16T14:11:20;1.70;;;0.90;;
57401;SDS011;43226;51.110;6.998;2023-05-16T14:13:50;1.27;;;1.03;;
57401;SDS011;43226;51.110;6.998;2023-05-16T14:16:16;1.20;;;1.10;;
57401;SDS011;43226;51.110;6.998;2023-05-16T14:18:41;1.57;;;0.70;;
57401;SDS011;43226;51.110;6.998;2023-05-16T14:21:06;1.57;;;1.00;;
57401;SDS011;43226;51.110;6.998;2023-05-16T14:23:31;2.03;;;0.90;;
57401;SDS011;43226;51.110;6.998;2023-05-16T14:25:57;2.90;;;1.10;;
57401;SDS011;43226;51.110;6.998;2023-05-16T14:28:22;2.70;;;1.30;;
57401;SDS011;43226;51.110;6.998;2023-05-16T14:30:47;4.07;;;1.00;;
57401;SDS011;43226;51.110;6.998;2023-05-16T14:33:13;4.50;;;1.63;;
57401;SDS011;43226;51.110;6.998;2023-05-16T14:35:38;3.17;;;0.90;;
57401;SDS011;43226;51.110;6.998;2023-05-16T14:38:03;0.93;;;0.83;;
57401;SDS011;43226;51.110;6.998;2023-05-16T14:40:28;7.20;;;1.70;;
57401;SDS011;43226;51.110;6.998;2023-05-16T14:42:54;1.07;;;0.93;;
57401;SDS011;43226;51.110;6.998;2023-05-16T14:45:19;2.80;;;1.60;;